Hanksville, Utah
Current Conditions -  °F | °C
As of 5:53 PM on Monday 24 Nov 2014 (Local Time) from KCNY Reporting Station
Clear Clear  
Wind Chill: 30°   Ceiling: Unl
Heat Index: 37°   Visibility: 10mi
Dew Point:   Wind: 10mph
Humidity: 31%   Direction: 300°WNW
Pressure: 30.3"   Gusts: NA
Location:  38.37°N, 110.71°W
Report Text: KCNY 250053Z AUTO 30009KT 10SM CLR 03/M13 A3030 RMK AO2 SLP283 T00281128
Loading
Personal Weather Stations






























Interactive Weather Map New forecast layout! Learn more

10-Day Weather Forecast

Advertisements
Track Severe Weather on mobile